sensor_id;sensor_type;location;lat;lon;timestamp;P1;durP1;ratioP1;P2;durP2;ratioP2
68806;SDS011;55800;54.272;18.558;2023-12-14T00:01:00;22.90;;;12.68;;
68806;SDS011;55800;54.272;18.558;2023-12-14T00:03:35;18.42;;;11.65;;
68806;SDS011;55800;54.272;18.558;2023-12-14T00:06:04;21.13;;;13.80;;
68806;SDS011;55800;54.272;18.558;2023-12-14T00:08:34;24.63;;;12.43;;
68806;SDS011;55800;54.272;18.558;2023-12-14T00:11:04;20.15;;;12.02;;
68806;SDS011;55800;54.272;18.558;2023-12-14T00:13:35;21.73;;;12.23;;
68806;SDS011;55800;54.272;18.558;2023-12-14T00:16:06;19.90;;;12.07;;
68806;SDS011;55800;54.272;18.558;2023-12-14T00:18:36;20.08;;;12.07;;
68806;SDS011;55800;54.272;18.558;2023-12-14T00:21:06;26.85;;;11.27;;
68806;SDS011;55800;54.272;18.558;2023-12-14T00:23:35;22.30;;;11.18;;
68806;SDS011;55800;54.272;18.558;2023-12-14T00:26:05;21.15;;;10.52;;
68806;SDS011;55800;54.272;18.558;2023-12-14T00:28:36;24.55;;;12.32;;
68806;SDS011;55800;54.272;18.558;2023-12-14T00:31:05;27.40;;;12.68;;
68806;SDS011;55800;54.272;18.558;2023-12-14T00:33:35;21.38;;;12.45;;
68806;SDS011;55800;54.272;18.558;2023-12-14T00:36:04;24.48;;;13.15;;
68806;SDS011;55800;54.272;18.558;2023-12-14T00:41:03;22.70;;;12.15;;
68806;SDS011;55800;54.272;18.558;2023-12-14T00:43:33;20.20;;;11.80;;
68806;SDS011;55800;54.272;18.558;2023-12-14T00:46:05;18.35;;;12.02;;
68806;SDS011;55800;54.272;18.558;2023-12-14T00:48:36;23.73;;;14.48;;
68806;SDS011;55800;54.272;18.558;2023-12-14T00:51:07;23.60;;;12.80;;
68806;SDS011;55800;54.272;18.558;2023-12-14T00:53:36;18.90;;;12.23;;
68806;SDS011;55800;54.272;18.558;2023-12-14T00:56:07;19.80;;;11.80;;
68806;SDS011;55800;54.272;18.558;2023-12-14T00:58:38;17.35;;;11.70;;
68806;SDS011;55800;54.272;18.558;2023-12-14T01:01:08;20.10;;;11.18;;
68806;SDS011;55800;54.272;18.558;2023-12-14T01:03:37;17.42;;;10.85;;
68806;SDS011;55800;54.272;18.558;2023-12-14T01:06:07;26.75;;;13.30;;
68806;SDS011;55800;54.272;18.558;2023-12-14T01:08:36;18.60;;;13.20;;
68806;SDS011;55800;54.272;18.558;2023-12-14T01:11:06;23.17;;;11.98;;
68806;SDS011;55800;54.272;18.558;2023-12-14T01:13:35;16.50;;;9.93;;
68806;SDS011;55800;54.272;18.558;2023-12-14T01:16:06;20.48;;;12.57;;
68806;SDS011;55800;54.272;18.558;2023-12-14T01:18:36;17.90;;;11.15;;
68806;SDS011;55800;54.272;18.558;2023-12-14T01:21:06;20.25;;;10.68;;
68806;SDS011;55800;54.272;18.558;2023-12-14T01:23:35;20.00;;;11.82;;
68806;SDS011;55800;54.272;18.558;2023-12-14T01:26:06;21.38;;;12.50;;
68806;SDS011;55800;54.272;18.558;2023-12-14T01:28:35;22.05;;;11.68;;
68806;SDS011;55800;54.272;18.558;2023-12-14T01:31:06;24.30;;;13.27;;
68806;SDS011;55800;54.272;18.558;2023-12-14T01:33:35;22.35;;;12.52;;
68806;SDS011;55800;54.272;18.558;2023-12-14T01:36:05;21.50;;;11.18;;
68806;SDS011;55800;54.272;18.558;2023-12-14T01:38:34;23.70;;;12.65;;
68806;SDS011;55800;54.272;18.558;2023-12-14T01:41:04;19.23;;;13.20;;
68806;SDS011;55800;54.272;18.558;2023-12-14T01:43:33;21.75;;;12.73;;
68806;SDS011;55800;54.272;18.558;2023-12-14T01:46:03;34.25;;;13.82;;
68806;SDS011;55800;54.272;18.558;2023-12-14T01:48:34;24.95;;;15.07;;
68806;SDS011;55800;54.272;18.558;2023-12-14T01:51:04;23.15;;;12.20;;
68806;SDS011;55800;54.272;18.558;2023-12-14T01:53:33;28.08;;;14.05;;
68806;SDS011;55800;54.272;18.558;2023-12-14T01:56:03;20.65;;;11.05;;
68806;SDS011;55800;54.272;18.558;2023-12-14T01:58:33;20.85;;;10.75;;
68806;SDS011;55800;54.272;18.558;2023-12-14T02:01:03;18.15;;;9.85;;
68806;SDS011;55800;54.272;18.558;2023-12-14T02:03:44;19.92;;;11.07;;
68806;SDS011;55800;54.272;18.558;2023-12-14T02:06:14;17.27;;;10.40;;
68806;SDS011;55800;54.272;18.558;2023-12-14T02:08:44;18.48;;;11.15;;
68806;SDS011;55800;54.272;18.558;2023-12-14T02:11:13;11.93;;;7.95;;
68806;SDS011;55800;54.272;18.558;2023-12-14T02:13:43;13.43;;;9.38;;
68806;SDS011;55800;54.272;18.558;2023-12-14T02:16:13;17.20;;;9.05;;
68806;SDS011;55800;54.272;18.558;2023-12-14T02:18:42;14.27;;;7.90;;
68806;SDS011;55800;54.272;18.558;2023-12-14T02:21:13;19.35;;;9.13;;
68806;SDS011;55800;54.272;18.558;2023-12-14T02:23:44;14.38;;;8.90;;
68806;SDS011;55800;54.272;18.558;2023-12-14T02:26:14;15.35;;;8.35;;
68806;SDS011;55800;54.272;18.558;2023-12-14T02:28:43;14.05;;;8.68;;
68806;SDS011;55800;54.272;18.558;2023-12-14T02:31:13;14.02;;;8.32;;
68806;SDS011;55800;54.272;18.558;2023-12-14T02:33:42;14.50;;;8.02;;
68806;SDS011;55800;54.272;18.558;2023-12-14T02:36:12;13.88;;;8.68;;
68806;SDS011;55800;54.272;18.558;2023-12-14T02:38:41;15.48;;;9.27;;
68806;SDS011;55800;54.272;18.558;2023-12-14T02:43:42;11.88;;;7.13;;
68806;SDS011;55800;54.272;18.558;2023-12-14T02:46:11;9.63;;;6.93;;
68806;SDS011;55800;54.272;18.558;2023-12-14T02:48:42;13.38;;;8.90;;
68806;SDS011;55800;54.272;18.558;2023-12-14T02:51:12;9.77;;;6.97;;
68806;SDS011;55800;54.272;18.558;2023-12-14T02:53:42;10.05;;;7.63;;
68806;SDS011;55800;54.272;18.558;2023-12-14T02:56:12;12.60;;;7.30;;
68806;SDS011;55800;54.272;18.558;2023-12-14T02:58:42;10.23;;;6.65;;
68806;SDS011;55800;54.272;18.558;2023-12-14T03:01:18;12.38;;;6.80;;
68806;SDS011;55800;54.272;18.558;2023-12-14T03:03:48;12.00;;;7.30;;
68806;SDS011;55800;54.272;18.558;2023-12-14T03:06:18;14.88;;;7.30;;
68806;SDS011;55800;54.272;18.558;2023-12-14T03:08:47;10.95;;;6.05;;
68806;SDS011;55800;54.272;18.558;2023-12-14T03:11:24;10.27;;;7.38;;
68806;SDS011;55800;54.272;18.558;2023-12-14T03:13:54;11.13;;;7.30;;
68806;SDS011;55800;54.272;18.558;2023-12-14T03:16:23;14.57;;;7.90;;
68806;SDS011;55800;54.272;18.558;2023-12-14T03:18:52;11.60;;;7.15;;
68806;SDS011;55800;54.272;18.558;2023-12-14T03:21:24;8.75;;;6.43;;
68806;SDS011;55800;54.272;18.558;2023-12-14T03:23:53;10.02;;;7.07;;
68806;SDS011;55800;54.272;18.558;2023-12-14T03:26:24;10.93;;;6.38;;
68806;SDS011;55800;54.272;18.558;2023-12-14T03:28:53;8.75;;;5.57;;
68806;SDS011;55800;54.272;18.558;2023-12-14T03:31:22;12.52;;;7.18;;
68806;SDS011;55800;54.272;18.558;2023-12-14T03:33:52;8.23;;;5.35;;
68806;SDS011;55800;54.272;18.558;2023-12-14T03:36:21;10.20;;;6.05;;
68806;SDS011;55800;54.272;18.558;2023-12-14T03:38:53;11.60;;;5.22;;
68806;SDS011;55800;54.272;18.558;2023-12-14T03:41:24;10.95;;;5.88;;
68806;SDS011;55800;54.272;18.558;2023-12-14T03:43:53;10.18;;;6.00;;
68806;SDS011;55800;54.272;18.558;2023-12-14T03:46:22;11.32;;;6.20;;
68806;SDS011;55800;54.272;18.558;2023-12-14T03:48:52;7.88;;;5.47;;
68806;SDS011;55800;54.272;18.558;2023-12-14T03:51:21;9.50;;;6.15;;
68806;SDS011;55800;54.272;18.558;2023-12-14T03:53:50;9.55;;;6.38;;
68806;SDS011;55800;54.272;18.558;2023-12-14T03:56:20;9.13;;;5.25;;
68806;SDS011;55800;54.272;18.558;2023-12-14T03:58:51;11.15;;;6.18;;
68806;SDS011;55800;54.272;18.558;2023-12-14T04:01:20;16.17;;;6.35;;
68806;SDS011;55800;54.272;18.558;2023-12-14T04:03:49;9.15;;;6.53;;
68806;SDS011;55800;54.272;18.558;2023-12-14T04:06:19;9.18;;;5.38;;
68806;SDS011;55800;54.272;18.558;2023-12-14T04:08:48;9.10;;;5.75;;
68806;SDS011;55800;54.272;18.558;2023-12-14T04:11:17;10.95;;;5.93;;
68806;SDS011;55800;54.272;18.558;2023-12-14T04:13:46;10.52;;;6.07;;
68806;SDS011;55800;54.272;18.558;2023-12-14T04:16:20;9.80;;;6.18;;
68806;SDS011;55800;54.272;18.558;2023-12-14T04:18:52;9.35;;;6.75;;
68806;SDS011;55800;54.272;18.558;2023-12-14T04:21:21;10.88;;;6.28;;
68806;SDS011;55800;54.272;18.558;2023-12-14T04:23:51;9.93;;;7.15;;
68806;SDS011;55800;54.272;18.558;2023-12-14T04:26:20;11.00;;;6.60;;
68806;SDS011;55800;54.272;18.558;2023-12-14T04:28:49;11.30;;;6.60;;
68806;SDS011;55800;54.272;18.558;2023-12-14T04:31:20;9.25;;;6.38;;
68806;SDS011;55800;54.272;18.558;2023-12-14T04:33:49;11.88;;;6.80;;
68806;SDS011;55800;54.272;18.558;2023-12-14T04:36:19;8.73;;;5.57;;
68806;SDS011;55800;54.272;18.558;2023-12-14T04:38:48;11.20;;;6.28;;
68806;SDS011;55800;54.272;18.558;2023-12-14T04:41:17;10.95;;;7.22;;
68806;SDS011;55800;54.272;18.558;2023-12-14T04:43:47;11.13;;;6.15;;
68806;SDS011;55800;54.272;18.558;2023-12-14T04:46:16;8.20;;;5.63;;
68806;SDS011;55800;54.272;18.558;2023-12-14T04:48:47;9.75;;;5.90;;
68806;SDS011;55800;54.272;18.558;2023-12-14T04:51:16;12.10;;;5.93;;
68806;SDS011;55800;54.272;18.558;2023-12-14T04:53:46;10.10;;;6.18;;
68806;SDS011;55800;54.272;18.558;2023-12-14T04:56:15;13.38;;;6.57;;
68806;SDS011;55800;54.272;18.558;2023-12-14T04:58:44;10.00;;;6.35;;
68806;SDS011;55800;54.272;18.558;2023-12-14T05:01:14;8.02;;;5.32;;
68806;SDS011;55800;54.272;18.558;2023-12-14T05:03:43;13.60;;;6.07;;
68806;SDS011;55800;54.272;18.558;2023-12-14T05:06:14;8.60;;;5.68;;
68806;SDS011;55800;54.272;18.558;2023-12-14T05:08:43;11.90;;;6.40;;
68806;SDS011;55800;54.272;18.558;2023-12-14T05:11:13;10.80;;;6.70;;
68806;SDS011;55800;54.272;18.558;2023-12-14T05:13:42;9.88;;;4.90;;
68806;SDS011;55800;54.272;18.558;2023-12-14T05:16:13;8.52;;;5.28;;
68806;SDS011;55800;54.272;18.558;2023-12-14T05:18:43;9.05;;;5.05;;
68806;SDS011;55800;54.272;18.558;2023-12-14T05:21:17;11.70;;;5.63;;
68806;SDS011;55800;54.272;18.558;2023-12-14T05:23:46;7.70;;;5.28;;
68806;SDS011;55800;54.272;18.558;2023-12-14T05:26:16;7.63;;;5.40;;
68806;SDS011;55800;54.272;18.558;2023-12-14T05:28:45;10.73;;;5.15;;
68806;SDS011;55800;54.272;18.558;2023-12-14T05:31:15;10.88;;;5.75;;
68806;SDS011;55800;54.272;18.558;2023-12-14T05:33:45;9.40;;;5.57;;
68806;SDS011;55800;54.272;18.558;2023-12-14T05:36:14;9.43;;;5.25;;
68806;SDS011;55800;54.272;18.558;2023-12-14T05:38:45;7.45;;;5.15;;
68806;SDS011;55800;54.272;18.558;2023-12-14T05:41:14;7.63;;;5.32;;
68806;SDS011;55800;54.272;18.558;2023-12-14T05:43:44;9.07;;;5.20;;
68806;SDS011;55800;54.272;18.558;2023-12-14T05:46:21;7.47;;;5.30;;
68806;SDS011;55800;54.272;18.558;2023-12-14T05:48:50;7.97;;;4.68;;
68806;SDS011;55800;54.272;18.558;2023-12-14T05:51:27;6.90;;;4.68;;
68806;SDS011;55800;54.272;18.558;2023-12-14T05:53:58;6.90;;;4.68;;
68806;SDS011;55800;54.272;18.558;2023-12-14T05:56:28;8.52;;;5.60;;
68806;SDS011;55800;54.272;18.558;2023-12-14T05:58:57;8.95;;;4.50;;
68806;SDS011;55800;54.272;18.558;2023-12-14T06:01:27;6.57;;;4.28;;
68806;SDS011;55800;54.272;18.558;2023-12-14T06:03:56;9.57;;;6.97;;
68806;SDS011;55800;54.272;18.558;2023-12-14T06:06:26;6.28;;;4.55;;
68806;SDS011;55800;54.272;18.558;2023-12-14T06:08:55;7.30;;;3.67;;
68806;SDS011;55800;54.272;18.558;2023-12-14T06:11:26;8.40;;;4.28;;
68806;SDS011;55800;54.272;18.558;2023-12-14T06:13:55;7.97;;;5.00;;
68806;SDS011;55800;54.272;18.558;2023-12-14T06:16:28;7.07;;;4.68;;
68806;SDS011;55800;54.272;18.558;2023-12-14T06:18:57;8.15;;;4.38;;
68806;SDS011;55800;54.272;18.558;2023-12-14T06:21:26;6.88;;;4.85;;
68806;SDS011;55800;54.272;18.558;2023-12-14T06:23:55;8.63;;;4.45;;
68806;SDS011;55800;54.272;18.558;2023-12-14T06:26:28;7.25;;;4.40;;
68806;SDS011;55800;54.272;18.558;2023-12-14T06:28:57;9.15;;;4.57;;
68806;SDS011;55800;54.272;18.558;2023-12-14T06:31:26;5.57;;;4.25;;
68806;SDS011;55800;54.272;18.558;2023-12-14T06:33:56;6.72;;;4.57;;
68806;SDS011;55800;54.272;18.558;2023-12-14T06:36:28;5.80;;;3.97;;
68806;SDS011;55800;54.272;18.558;2023-12-14T06:38:57;6.25;;;3.80;;
68806;SDS011;55800;54.272;18.558;2023-12-14T06:41:28;9.27;;;4.78;;
68806;SDS011;55800;54.272;18.558;2023-12-14T06:43:58;4.75;;;4.05;;
68806;SDS011;55800;54.272;18.558;2023-12-14T06:46:27;4.80;;;3.42;;
68806;SDS011;55800;54.272;18.558;2023-12-14T06:48:57;6.60;;;3.85;;
68806;SDS011;55800;54.272;18.558;2023-12-14T06:51:26;5.53;;;4.13;;
68806;SDS011;55800;54.272;18.558;2023-12-14T06:53:56;6.25;;;4.05;;
68806;SDS011;55800;54.272;18.558;2023-12-14T06:56:25;8.07;;;4.47;;
68806;SDS011;55800;54.272;18.558;2023-12-14T06:58:56;8.73;;;3.63;;
68806;SDS011;55800;54.272;18.558;2023-12-14T07:01:25;7.63;;;3.97;;
68806;SDS011;55800;54.272;18.558;2023-12-14T07:03:54;6.72;;;4.00;;
68806;SDS011;55800;54.272;18.558;2023-12-14T07:06:24;9.32;;;4.38;;
68806;SDS011;55800;54.272;18.558;2023-12-14T07:08:53;6.85;;;4.15;;
68806;SDS011;55800;54.272;18.558;2023-12-14T07:11:22;6.85;;;4.63;;
68806;SDS011;55800;54.272;18.558;2023-12-14T07:13:52;7.53;;;4.32;;
68806;SDS011;55800;54.272;18.558;2023-12-14T07:16:23;6.78;;;4.32;;
68806;SDS011;55800;54.272;18.558;2023-12-14T07:18:52;6.40;;;3.97;;
68806;SDS011;55800;54.272;18.558;2023-12-14T07:21:22;6.97;;;3.80;;
68806;SDS011;55800;54.272;18.558;2023-12-14T07:23:51;7.85;;;6.18;;
68806;SDS011;55800;54.272;18.558;2023-12-14T07:28:53;8.18;;;4.43;;
68806;SDS011;55800;54.272;18.558;2023-12-14T07:31:24;10.70;;;4.75;;
68806;SDS011;55800;54.272;18.558;2023-12-14T07:33:55;9.02;;;4.70;;
68806;SDS011;55800;54.272;18.558;2023-12-14T07:36:25;10.48;;;5.28;;
68806;SDS011;55800;54.272;18.558;2023-12-14T07:38:55;5.85;;;4.68;;
68806;SDS011;55800;54.272;18.558;2023-12-14T07:41:24;9.93;;;5.13;;
68806;SDS011;55800;54.272;18.558;2023-12-14T07:43:56;8.45;;;5.80;;
68806;SDS011;55800;54.272;18.558;2023-12-14T07:46:30;7.72;;;5.22;;
68806;SDS011;55800;54.272;18.558;2023-12-14T07:49:00;9.52;;;6.00;;
68806;SDS011;55800;54.272;18.558;2023-12-14T07:51:29;12.43;;;5.55;;
68806;SDS011;55800;54.272;18.558;2023-12-14T07:53:58;10.45;;;4.93;;
68806;SDS011;55800;54.272;18.558;2023-12-14T07:56:30;10.50;;;6.03;;
68806;SDS011;55800;54.272;18.558;2023-12-14T07:59:00;9.68;;;5.18;;
68806;SDS011;55800;54.272;18.558;2023-12-14T08:01:35;9.18;;;5.70;;
68806;SDS011;55800;54.272;18.558;2023-12-14T08:04:04;8.23;;;5.25;;
68806;SDS011;55800;54.272;18.558;2023-12-14T08:06:34;8.70;;;4.95;;
68806;SDS011;55800;54.272;18.558;2023-12-14T08:09:03;9.40;;;4.93;;
68806;SDS011;55800;54.272;18.558;2023-12-14T08:11:32;7.68;;;4.20;;
68806;SDS011;55800;54.272;18.558;2023-12-14T08:14:02;8.65;;;5.75;;
68806;SDS011;55800;54.272;18.558;2023-12-14T08:16:31;6.55;;;4.35;;
68806;SDS011;55800;54.272;18.558;2023-12-14T08:19:02;7.93;;;4.82;;
68806;SDS011;55800;54.272;18.558;2023-12-14T08:21:32;8.18;;;5.68;;
68806;SDS011;55800;54.272;18.558;2023-12-14T08:24:02;9.77;;;4.47;;
68806;SDS011;55800;54.272;18.558;2023-12-14T08:26:32;7.03;;;4.78;;
68806;SDS011;55800;54.272;18.558;2023-12-14T08:29:01;6.57;;;4.65;;
68806;SDS011;55800;54.272;18.558;2023-12-14T08:31:30;7.95;;;5.55;;
68806;SDS011;55800;54.272;18.558;2023-12-14T08:34:00;9.55;;;4.20;;
68806;SDS011;55800;54.272;18.558;2023-12-14T08:36:31;12.52;;;5.28;;
68806;SDS011;55800;54.272;18.558;2023-12-14T08:39:00;10.55;;;6.80;;
68806;SDS011;55800;54.272;18.558;2023-12-14T08:41:30;8.45;;;4.97;;
68806;SDS011;55800;54.272;18.558;2023-12-14T08:43:59;7.80;;;4.78;;
68806;SDS011;55800;54.272;18.558;2023-12-14T08:46:29;7.35;;;4.82;;
68806;SDS011;55800;54.272;18.558;2023-12-14T08:49:09;9.57;;;5.10;;
68806;SDS011;55800;54.272;18.558;2023-12-14T08:51:39;8.02;;;4.90;;
68806;SDS011;55800;54.272;18.558;2023-12-14T08:56:38;9.30;;;5.10;;
68806;SDS011;55800;54.272;18.558;2023-12-14T08:59:08;7.18;;;4.22;;
68806;SDS011;55800;54.272;18.558;2023-12-14T09:01:38;10.63;;;5.03;;
68806;SDS011;55800;54.272;18.558;2023-12-14T09:04:09;9.95;;;5.47;;
68806;SDS011;55800;54.272;18.558;2023-12-14T09:06:38;10.40;;;5.18;;
68806;SDS011;55800;54.272;18.558;2023-12-14T09:09:09;8.43;;;4.78;;
68806;SDS011;55800;54.272;18.558;2023-12-14T09:11:38;7.95;;;4.65;;
68806;SDS011;55800;54.272;18.558;2023-12-14T09:14:07;6.15;;;4.20;;
68806;SDS011;55800;54.272;18.558;2023-12-14T09:16:37;5.97;;;4.00;;
68806;SDS011;55800;54.272;18.558;2023-12-14T09:19:06;8.45;;;4.72;;
68806;SDS011;55800;54.272;18.558;2023-12-14T09:21:37;7.78;;;4.50;;
68806;SDS011;55800;54.272;18.558;2023-12-14T09:24:12;5.38;;;4.10;;
68806;SDS011;55800;54.272;18.558;2023-12-14T09:26:42;7.40;;;4.10;;
68806;SDS011;55800;54.272;18.558;2023-12-14T09:29:11;8.93;;;4.30;;
68806;SDS011;55800;54.272;18.558;2023-12-14T09:31:42;7.47;;;4.55;;
68806;SDS011;55800;54.272;18.558;2023-12-14T09:34:13;9.18;;;4.25;;
68806;SDS011;55800;54.272;18.558;2023-12-14T09:36:43;7.63;;;3.83;;
68806;SDS011;55800;54.272;18.558;2023-12-14T09:39:12;5.05;;;3.47;;
68806;SDS011;55800;54.272;18.558;2023-12-14T09:44:12;6.97;;;4.05;;
68806;SDS011;55800;54.272;18.558;2023-12-14T09:46:42;6.68;;;3.88;;
68806;SDS011;55800;54.272;18.558;2023-12-14T09:49:17;5.60;;;3.80;;
68806;SDS011;55800;54.272;18.558;2023-12-14T09:51:48;6.47;;;4.10;;
68806;SDS011;55800;54.272;18.558;2023-12-14T09:54:17;9.65;;;4.38;;
68806;SDS011;55800;54.272;18.558;2023-12-14T09:56:47;9.70;;;5.43;;
68806;SDS011;55800;54.272;18.558;2023-12-14T09:59:17;6.38;;;3.80;;
68806;SDS011;55800;54.272;18.558;2023-12-14T10:01:46;8.75;;;4.15;;
68806;SDS011;55800;54.272;18.558;2023-12-14T10:04:18;6.93;;;4.05;;
68806;SDS011;55800;54.272;18.558;2023-12-14T10:06:48;7.90;;;4.43;;
68806;SDS011;55800;54.272;18.558;2023-12-14T10:09:22;5.50;;;3.30;;
68806;SDS011;55800;54.272;18.558;2023-12-14T10:12:01;7.30;;;4.85;;
68806;SDS011;55800;54.272;18.558;2023-12-14T10:14:32;5.75;;;3.90;;
68806;SDS011;55800;54.272;18.558;2023-12-14T10:17:16;4.13;;;3.10;;
68806;SDS011;55800;54.272;18.558;2023-12-14T10:19:48;6.22;;;4.55;;
68806;SDS011;55800;54.272;18.558;2023-12-14T10:22:17;7.30;;;4.82;;
68806;SDS011;55800;54.272;18.558;2023-12-14T10:24:47;9.40;;;4.20;;
68806;SDS011;55800;54.272;18.558;2023-12-14T10:27:17;5.50;;;3.92;;
68806;SDS011;55800;54.272;18.558;2023-12-14T10:29:47;7.25;;;3.92;;
68806;SDS011;55800;54.272;18.558;2023-12-14T10:32:18;5.97;;;4.25;;
68806;SDS011;55800;54.272;18.558;2023-12-14T10:34:49;6.07;;;4.72;;
68806;SDS011;55800;54.272;18.558;2023-12-14T10:37:19;7.22;;;4.70;;
68806;SDS011;55800;54.272;18.558;2023-12-14T10:39:51;8.00;;;4.22;;
68806;SDS011;55800;54.272;18.558;2023-12-14T10:42:21;8.18;;;4.20;;
68806;SDS011;55800;54.272;18.558;2023-12-14T10:44:56;6.72;;;5.03;;
68806;SDS011;55800;54.272;18.558;2023-12-14T10:47:44;8.13;;;3.83;;
68806;SDS011;55800;54.272;18.558;2023-12-14T10:50:16;6.70;;;3.22;;
68806;SDS011;55800;54.272;18.558;2023-12-14T10:52:47;5.97;;;3.80;;
68806;SDS011;55800;54.272;18.558;2023-12-14T10:55:18;8.10;;;4.15;;
68806;SDS011;55800;54.272;18.558;2023-12-14T10:57:51;7.30;;;3.92;;
68806;SDS011;55800;54.272;18.558;2023-12-14T11:00:21;7.47;;;4.53;;
68806;SDS011;55800;54.272;18.558;2023-12-14T11:02:50;6.18;;;4.30;;
68806;SDS011;55800;54.272;18.558;2023-12-14T11:05:22;5.47;;;3.70;;
68806;SDS011;55800;54.272;18.558;2023-12-14T11:08:00;7.68;;;3.72;;
68806;SDS011;55800;54.272;18.558;2023-12-14T11:10:37;4.40;;;3.28;;
68806;SDS011;55800;54.272;18.558;2023-12-14T11:13:08;8.55;;;4.65;;
68806;SDS011;55800;54.272;18.558;2023-12-14T11:15:40;5.18;;;3.33;;
68806;SDS011;55800;54.272;18.558;2023-12-14T11:18:23;6.20;;;2.92;;
68806;SDS011;55800;54.272;18.558;2023-12-14T11:20:56;7.95;;;3.63;;
68806;SDS011;55800;54.272;18.558;2023-12-14T11:23:35;7.53;;;3.85;;
68806;SDS011;55800;54.272;18.558;2023-12-14T11:26:06;6.35;;;3.53;;
68806;SDS011;55800;54.272;18.558;2023-12-14T11:28:38;6.55;;;3.67;;
68806;SDS011;55800;54.272;18.558;2023-12-14T11:31:10;6.05;;;3.63;;
68806;SDS011;55800;54.272;18.558;2023-12-14T11:33:40;5.18;;;4.00;;
68806;SDS011;55800;54.272;18.558;2023-12-14T11:36:13;15.15;;;5.95;;
68806;SDS011;55800;54.272;18.558;2023-12-14T11:38:43;8.27;;;4.05;;
68806;SDS011;55800;54.272;18.558;2023-12-14T11:41:12;10.48;;;4.78;;
68806;SDS011;55800;54.272;18.558;2023-12-14T11:43:43;7.72;;;4.03;;
68806;SDS011;55800;54.272;18.558;2023-12-14T11:46:12;6.82;;;4.35;;
68806;SDS011;55800;54.272;18.558;2023-12-14T11:48:43;9.90;;;4.57;;
68806;SDS011;55800;54.272;18.558;2023-12-14T11:51:15;7.20;;;3.65;;
68806;SDS011;55800;54.272;18.558;2023-12-14T11:53:45;5.60;;;3.92;;
68806;SDS011;55800;54.272;18.558;2023-12-14T11:58:45;8.07;;;4.35;;
68806;SDS011;55800;54.272;18.558;2023-12-14T12:03:46;6.88;;;4.43;;
68806;SDS011;55800;54.272;18.558;2023-12-14T12:06:23;8.50;;;5.10;;
68806;SDS011;55800;54.272;18.558;2023-12-14T12:08:55;6.25;;;3.88;;
68806;SDS011;55800;54.272;18.558;2023-12-14T12:11:25;8.32;;;5.00;;
68806;SDS011;55800;54.272;18.558;2023-12-14T12:13:56;8.40;;;4.65;;
68806;SDS011;55800;54.272;18.558;2023-12-14T12:16:27;9.43;;;5.28;;
68806;SDS011;55800;54.272;18.558;2023-12-14T12:18:56;7.28;;;4.60;;
68806;SDS011;55800;54.272;18.558;2023-12-14T12:21:27;8.27;;;4.88;;
68806;SDS011;55800;54.272;18.558;2023-12-14T12:23:57;10.75;;;5.05;;
68806;SDS011;55800;54.272;18.558;2023-12-14T12:26:27;10.45;;;5.05;;
68806;SDS011;55800;54.272;18.558;2023-12-14T12:31:26;6.57;;;4.90;;
68806;SDS011;55800;54.272;18.558;2023-12-14T12:33:56;8.13;;;5.60;;
68806;SDS011;55800;54.272;18.558;2023-12-14T12:36:25;7.20;;;5.30;;
68806;SDS011;55800;54.272;18.558;2023-12-14T12:38:56;9.20;;;4.82;;
68806;SDS011;55800;54.272;18.558;2023-12-14T12:41:25;9.15;;;4.53;;
68806;SDS011;55800;54.272;18.558;2023-12-14T12:43:55;9.25;;;4.65;;
68806;SDS011;55800;54.272;18.558;2023-12-14T12:46:24;7.25;;;5.40;;
68806;SDS011;55800;54.272;18.558;2023-12-14T12:48:53;11.32;;;6.15;;
68806;SDS011;55800;54.272;18.558;2023-12-14T12:51:23;10.85;;;6.05;;
68806;SDS011;55800;54.272;18.558;2023-12-14T12:56:38;13.65;;;6.20;;
68806;SDS011;55800;54.272;18.558;2023-12-14T12:59:08;14.68;;;7.18;;
68806;SDS011;55800;54.272;18.558;2023-12-14T13:01:38;10.05;;;7.07;;
68806;SDS011;55800;54.272;18.558;2023-12-14T13:04:17;12.60;;;6.65;;
68806;SDS011;55800;54.272;18.558;2023-12-14T13:06:47;12.18;;;7.47;;
68806;SDS011;55800;54.272;18.558;2023-12-14T13:09:19;12.63;;;6.57;;
68806;SDS011;55800;54.272;18.558;2023-12-14T13:11:50;13.65;;;6.53;;
68806;SDS011;55800;54.272;18.558;2023-12-14T13:14:20;12.57;;;7.72;;
68806;SDS011;55800;54.272;18.558;2023-12-14T13:16:49;11.80;;;7.07;;
68806;SDS011;55800;54.272;18.558;2023-12-14T13:19:19;12.20;;;7.53;;
68806;SDS011;55800;54.272;18.558;2023-12-14T13:21:50;15.82;;;7.63;;
68806;SDS011;55800;54.272;18.558;2023-12-14T13:24:21;12.75;;;8.35;;
68806;SDS011;55800;54.272;18.558;2023-12-14T13:26:51;18.40;;;7.78;;
68806;SDS011;55800;54.272;18.558;2023-12-14T13:29:20;15.55;;;8.38;;
68806;SDS011;55800;54.272;18.558;2023-12-14T13:31:50;13.27;;;6.68;;
68806;SDS011;55800;54.272;18.558;2023-12-14T13:34:19;12.02;;;6.97;;
68806;SDS011;55800;54.272;18.558;2023-12-14T13:36:48;14.00;;;7.43;;
68806;SDS011;55800;54.272;18.558;2023-12-14T13:39:18;15.00;;;5.93;;
68806;SDS011;55800;54.272;18.558;2023-12-14T13:41:49;14.70;;;8.80;;
68806;SDS011;55800;54.272;18.558;2023-12-14T13:44:18;18.65;;;9.98;;
68806;SDS011;55800;54.272;18.558;2023-12-14T13:46:48;16.00;;;9.63;;
68806;SDS011;55800;54.272;18.558;2023-12-14T13:49:17;13.50;;;6.80;;
68806;SDS011;55800;54.272;18.558;2023-12-14T13:51:47;13.43;;;8.63;;
68806;SDS011;55800;54.272;18.558;2023-12-14T13:54:16;14.98;;;8.77;;
68806;SDS011;55800;54.272;18.558;2023-12-14T13:56:47;14.90;;;7.47;;
68806;SDS011;55800;54.272;18.558;2023-12-14T13:59:17;12.20;;;6.70;;
68806;SDS011;55800;54.272;18.558;2023-12-14T14:01:46;12.60;;;7.00;;
68806;SDS011;55800;54.272;18.558;2023-12-14T14:04:17;12.90;;;6.80;;
68806;SDS011;55800;54.272;18.558;2023-12-14T14:06:46;11.48;;;7.13;;
68806;SDS011;55800;54.272;18.558;2023-12-14T14:09:16;16.02;;;9.27;;
68806;SDS011;55800;54.272;18.558;2023-12-14T14:11:47;13.73;;;7.68;;
68806;SDS011;55800;54.272;18.558;2023-12-14T14:14:18;14.80;;;7.25;;
68806;SDS011;55800;54.272;18.558;2023-12-14T14:16:50;11.90;;;7.20;;
68806;SDS011;55800;54.272;18.558;2023-12-14T14:19:19;15.38;;;8.00;;
68806;SDS011;55800;54.272;18.558;2023-12-14T14:21:48;24.58;;;8.77;;
68806;SDS011;55800;54.272;18.558;2023-12-14T14:24:18;18.55;;;9.70;;
68806;SDS011;55800;54.272;18.558;2023-12-14T14:26:49;23.00;;;10.05;;
68806;SDS011;55800;54.272;18.558;2023-12-14T14:29:19;25.27;;;12.65;;
68806;SDS011;55800;54.272;18.558;2023-12-14T14:31:49;20.42;;;10.52;;
68806;SDS011;55800;54.272;18.558;2023-12-14T14:34:18;19.52;;;9.68;;
68806;SDS011;55800;54.272;18.558;2023-12-14T14:36:52;24.27;;;10.27;;
68806;SDS011;55800;54.272;18.558;2023-12-14T14:39:22;17.27;;;8.75;;
68806;SDS011;55800;54.272;18.558;2023-12-14T14:41:52;16.35;;;8.65;;
68806;SDS011;55800;54.272;18.558;2023-12-14T14:44:22;15.25;;;8.18;;
68806;SDS011;55800;54.272;18.558;2023-12-14T14:46:51;11.02;;;8.15;;
68806;SDS011;55800;54.272;18.558;2023-12-14T14:49:20;21.48;;;8.60;;
68806;SDS011;55800;54.272;18.558;2023-12-14T14:51:50;16.60;;;7.22;;
68806;SDS011;55800;54.272;18.558;2023-12-14T14:54:19;16.05;;;8.65;;
68806;SDS011;55800;54.272;18.558;2023-12-14T14:56:48;30.73;;;13.13;;
68806;SDS011;55800;54.272;18.558;2023-12-14T14:59:19;22.60;;;10.48;;
68806;SDS011;55800;54.272;18.558;2023-12-14T15:01:49;17.33;;;8.05;;
68806;SDS011;55800;54.272;18.558;2023-12-14T15:04:19;27.42;;;9.98;;
68806;SDS011;55800;54.272;18.558;2023-12-14T15:06:48;14.00;;;6.82;;